Babaevo, Russia
Current Conditions -  °F | °C
As of 4:30 PM on Thursday 30 Oct 2014 (Local Time) from ULWC Reporting Station
Overcast Overcast  
Wind Chill:   Ceiling: 2600
Heat Index:   Visibility: 6mi
Dew Point: -1°   Wind: 4mph
Humidity: 65%   Direction: 250°WSW
Pressure: 30"   Gusts: NA
Location:  59.4°N, 35.93°E
Report Text: ULWC 301330Z 25002MPS 9999 BKN026 OVC/// 05/M01 Q1016 NOSIG RMKQFE752/1003 SC060
Loading
Personal Weather Stations






























Interactive Weather Map
Tropical Storm Tracking
New forecast layout! Learn more

10-Day Weather Forecast

Advertisements
Track Severe Weather on mobile